sensor_id;sensor_type;location;lat;lon;timestamp;pressure;altitude;pressure_sealevel;temperature;humidity
75166;BME280;63747;48.042;10.088;2023-04-24T00:00:43;94292.06;;;8.58;65.46
75166;BME280;63747;48.042;10.088;2023-04-24T00:03:45;94284.34;;;8.57;65.51
75166;BME280;63747;48.042;10.088;2023-04-24T00:06:45;94290.63;;;8.56;65.49
75166;BME280;63747;48.042;10.088;2023-04-24T00:09:49;94288.72;;;8.50;66.22
75166;BME280;63747;48.042;10.088;2023-04-24T00:12:50;94293.28;;;8.41;66.49
75166;BME280;63747;48.042;10.088;2023-04-24T00:15:50;94283.16;;;8.44;66.51
75166;BME280;63747;48.042;10.088;2023-04-24T00:18:51;94279.16;;;8.49;66.33
75166;BME280;63747;48.042;10.088;2023-04-24T00:21:56;94275.22;;;8.44;66.78
75166;BME280;63747;48.042;10.088;2023-04-24T00:24:56;94281.50;;;8.43;66.58
75166;BME280;63747;48.042;10.088;2023-04-24T00:27:57;94270.75;;;8.45;66.57
75166;BME280;63747;48.042;10.088;2023-04-24T00:30:57;94265.28;;;8.47;66.38
75166;BME280;63747;48.042;10.088;2023-04-24T00:33:58;94268.50;;;8.42;66.79
75166;BME280;63747;48.042;10.088;2023-04-24T00:36:58;94264.56;;;8.38;66.98
75166;BME280;63747;48.042;10.088;2023-04-24T00:39:59;94273.03;;;8.33;67.27
75166;BME280;63747;48.042;10.088;2023-04-24T00:42:59;94265.13;;;8.33;67.38
75166;BME280;63747;48.042;10.088;2023-04-24T00:46:00;94270.66;;;8.38;67.22
75166;BME280;63747;48.042;10.088;2023-04-24T00:49:01;94269.22;;;8.36;67.81
75166;BME280;63747;48.042;10.088;2023-04-24T00:52:02;94265.78;;;8.35;67.65
75166;BME280;63747;48.042;10.088;2023-04-24T00:55:07;94255.94;;;8.29;68.42
75166;BME280;63747;48.042;10.088;2023-04-24T00:58:08;94257.56;;;8.30;68.24
75166;BME280;63747;48.042;10.088;2023-04-24T01:01:09;94250.28;;;8.32;69.02
75166;BME280;63747;48.042;10.088;2023-04-24T01:04:10;94254.66;;;8.25;68.79
75166;BME280;63747;48.042;10.088;2023-04-24T01:07:11;94246.38;;;8.28;68.55
75166;BME280;63747;48.042;10.088;2023-04-24T01:10:13;94243.38;;;8.31;68.42
75166;BME280;63747;48.042;10.088;2023-04-24T01:13:13;94236.72;;;8.35;68.44
75166;BME280;63747;48.042;10.088;2023-04-24T01:16:14;94240.53;;;8.33;68.77
75166;BME280;63747;48.042;10.088;2023-04-24T01:19:17;94233.19;;;8.28;68.81
75166;BME280;63747;48.042;10.088;2023-04-24T01:22:19;94237.56;;;8.21;69.36
75166;BME280;63747;48.042;10.088;2023-04-24T01:25:20;94235.81;;;8.28;68.96
75166;BME280;63747;48.042;10.088;2023-04-24T01:28:22;94233.91;;;8.37;68.58
75166;BME280;63747;48.042;10.088;2023-04-24T01:31:22;94233.34;;;8.41;68.12
75166;BME280;63747;48.042;10.088;2023-04-24T01:34:23;94227.41;;;8.39;68.13
75166;BME280;63747;48.042;10.088;2023-04-24T01:37:24;94230.63;;;8.35;68.09
75166;BME280;63747;48.042;10.088;2023-04-24T01:40:24;94239.72;;;8.32;68.18
75166;BME280;63747;48.042;10.088;2023-04-24T01:43:25;94235.25;;;8.33;68.08
75166;BME280;63747;48.042;10.088;2023-04-24T01:46:25;94230.78;;;8.33;68.01
75166;BME280;63747;48.042;10.088;2023-04-24T01:49:26;94233.63;;;8.32;67.88
75166;BME280;63747;48.042;10.088;2023-04-24T01:52:27;94235.81;;;8.28;68.88
75166;BME280;63747;48.042;10.088;2023-04-24T01:55:28;94234.00;;;8.29;68.03
75166;BME280;63747;48.042;10.088;2023-04-24T01:58:29;94242.13;;;8.27;67.91
75166;BME280;63747;48.042;10.088;2023-04-24T02:01:33;94243.28;;;8.25;68.08
75166;BME280;63747;48.042;10.088;2023-04-24T02:04:35;94237.81;;;8.26;67.72
75166;BME280;63747;48.042;10.088;2023-04-24T02:07:36;94237.19;;;8.24;67.52
75166;BME280;63747;48.042;10.088;2023-04-24T02:10:36;94233.53;;;8.25;67.63
75166;BME280;63747;48.042;10.088;2023-04-24T02:13:37;94236.56;;;8.22;67.82
75166;BME280;63747;48.042;10.088;2023-04-24T02:16:37;94240.63;;;8.25;67.74
75166;BME280;63747;48.042;10.088;2023-04-24T02:19:38;94236.84;;;8.27;67.52
75166;BME280;63747;48.042;10.088;2023-04-24T02:22:39;94241.72;;;8.30;67.41
75166;BME280;63747;48.042;10.088;2023-04-24T02:25:39;94238.09;;;8.31;67.30
75166;BME280;63747;48.042;10.088;2023-04-24T02:28:40;94244.00;;;8.33;67.15
75166;BME280;63747;48.042;10.088;2023-04-24T02:31:40;94243.75;;;8.28;67.11
75166;BME280;63747;48.042;10.088;2023-04-24T02:34:41;94251.00;;;8.26;67.08
75166;BME280;63747;48.042;10.088;2023-04-24T02:37:41;94245.00;;;8.32;66.86
75166;BME280;63747;48.042;10.088;2023-04-24T02:40:42;94247.63;;;8.32;66.67
75166;BME280;63747;48.042;10.088;2023-04-24T02:43:42;94240.09;;;8.29;66.70
75166;BME280;63747;48.042;10.088;2023-04-24T02:46:43;94245.28;;;8.23;66.77
75166;BME280;63747;48.042;10.088;2023-04-24T02:49:43;94244.56;;;8.14;66.99
75166;BME280;63747;48.042;10.088;2023-04-24T02:52:44;94243.28;;;8.10;67.01
75166;BME280;63747;48.042;10.088;2023-04-24T02:55:44;94247.94;;;8.08;67.20
75166;BME280;63747;48.042;10.088;2023-04-24T02:58:46;94242.00;;;8.06;67.22
75166;BME280;63747;48.042;10.088;2023-04-24T03:01:46;94242.00;;;8.06;67.16
75166;BME280;63747;48.042;10.088;2023-04-24T03:04:47;94243.00;;;8.05;67.35
75166;BME280;63747;48.042;10.088;2023-04-24T03:07:50;94241.38;;;8.04;67.11
75166;BME280;63747;48.042;10.088;2023-04-24T03:10:52;94244.09;;;8.10;67.00
75166;BME280;63747;48.042;10.088;2023-04-24T03:13:53;94240.63;;;8.10;66.88
75166;BME280;63747;48.042;10.088;2023-04-24T03:16:53;94239.19;;;8.07;66.93
75166;BME280;63747;48.042;10.088;2023-04-24T03:19:54;94239.53;;;8.04;66.99
75166;BME280;63747;48.042;10.088;2023-04-24T03:22:54;94233.72;;;7.94;67.33
75166;BME280;63747;48.042;10.088;2023-04-24T03:25:56;94232.25;;;7.92;67.56
75166;BME280;63747;48.042;10.088;2023-04-24T03:28:56;94224.34;;;7.92;67.62
75166;BME280;63747;48.042;10.088;2023-04-24T03:31:57;94221.69;;;7.92;67.43
75166;BME280;63747;48.042;10.088;2023-04-24T03:34:57;94219.06;;;7.92;67.26
75166;BME280;63747;48.042;10.088;2023-04-24T03:37:58;94226.34;;;7.89;67.37
75166;BME280;63747;48.042;10.088;2023-04-24T03:40:58;94235.97;;;7.82;67.51
75166;BME280;63747;48.042;10.088;2023-04-24T03:43:58;94238.63;;;7.82;67.62
75166;BME280;63747;48.042;10.088;2023-04-24T03:47:00;94237.34;;;7.78;67.78
75166;BME280;63747;48.042;10.088;2023-04-24T03:50:00;94247.25;;;7.76;68.08
75166;BME280;63747;48.042;10.088;2023-04-24T03:53:01;94236.06;;;7.74;68.35
75166;BME280;63747;48.042;10.088;2023-04-24T03:56:01;94235.25;;;7.74;68.24
75166;BME280;63747;48.042;10.088;2023-04-24T03:59:02;94237.06;;;7.73;68.59
75166;BME280;63747;48.042;10.088;2023-04-24T04:02:03;94244.63;;;7.76;68.09
75166;BME280;63747;48.042;10.088;2023-04-24T04:05:03;94237.72;;;7.75;68.00
75166;BME280;63747;48.042;10.088;2023-04-24T04:08:03;94247.72;;;7.80;67.63
75166;BME280;63747;48.042;10.088;2023-04-24T04:11:04;94243.41;;;7.79;67.59
75166;BME280;63747;48.042;10.088;2023-04-24T04:14:05;94251.53;;;7.77;67.69
75166;BME280;63747;48.042;10.088;2023-04-24T04:17:05;94252.34;;;7.78;67.44
75166;BME280;63747;48.042;10.088;2023-04-24T04:20:06;94256.47;;;7.80;67.27
75166;BME280;63747;48.042;10.088;2023-04-24T04:23:09;94253.34;;;7.77;67.44
75166;BME280;63747;48.042;10.088;2023-04-24T04:26:10;94248.44;;;7.74;67.46
75166;BME280;63747;48.042;10.088;2023-04-24T04:29:12;94252.53;;;7.76;67.23
75166;BME280;63747;48.042;10.088;2023-04-24T04:32:13;94256.16;;;7.75;67.12
75166;BME280;63747;48.042;10.088;2023-04-24T04:35:13;94264.09;;;7.75;67.07
75166;BME280;63747;48.042;10.088;2023-04-24T04:38:14;94266.53;;;7.77;67.05
75166;BME280;63747;48.042;10.088;2023-04-24T04:41:15;94263.09;;;7.76;66.81
75166;BME280;63747;48.042;10.088;2023-04-24T04:44:16;94271.00;;;7.76;66.69
75166;BME280;63747;48.042;10.088;2023-04-24T04:47:17;94281.06;;;7.73;66.42
75166;BME280;63747;48.042;10.088;2023-04-24T04:50:18;94278.31;;;7.66;66.73
75166;BME280;63747;48.042;10.088;2023-04-24T04:53:19;94278.91;;;7.53;67.70
75166;BME280;63747;48.042;10.088;2023-04-24T04:56:19;94283.06;;;7.48;67.88
75166;BME280;63747;48.042;10.088;2023-04-24T04:59:20;94280.63;;;7.46;68.79
75166;BME280;63747;48.042;10.088;2023-04-24T05:02:21;94284.22;;;7.45;68.11
75166;BME280;63747;48.042;10.088;2023-04-24T05:05:21;94292.63;;;7.49;68.04
75166;BME280;63747;48.042;10.088;2023-04-24T05:08:22;94293.25;;;7.51;67.88
75166;BME280;63747;48.042;10.088;2023-04-24T05:11:23;94293.75;;;7.54;67.88
75166;BME280;63747;48.042;10.088;2023-04-24T05:14:23;94297.38;;;7.53;68.24
75166;BME280;63747;48.042;10.088;2023-04-24T05:17:24;94303.59;;;7.60;67.93
75166;BME280;63747;48.042;10.088;2023-04-24T05:20:25;94302.06;;;7.66;67.86
75166;BME280;63747;48.042;10.088;2023-04-24T05:23:26;94306.97;;;7.69;67.87
75166;BME280;63747;48.042;10.088;2023-04-24T05:26:26;94310.78;;;7.67;68.12
75166;BME280;63747;48.042;10.088;2023-04-24T05:29:27;94309.38;;;7.56;68.70
75166;BME280;63747;48.042;10.088;2023-04-24T05:32:28;94309.69;;;7.61;68.65
75166;BME280;63747;48.042;10.088;2023-04-24T05:35:28;94320.34;;;7.68;68.28
75166;BME280;63747;48.042;10.088;2023-04-24T05:38:29;94328.06;;;7.69;68.28
75166;BME280;63747;48.042;10.088;2023-04-24T05:41:29;94321.16;;;7.68;68.35
75166;BME280;63747;48.042;10.088;2023-04-24T05:44:30;94320.16;;;7.69;68.42
75166;BME280;63747;48.042;10.088;2023-04-24T05:47:31;94321.59;;;7.80;68.21
75166;BME280;63747;48.042;10.088;2023-04-24T05:50:31;94321.84;;;7.85;67.98
75166;BME280;63747;48.042;10.088;2023-04-24T05:53:32;94325.97;;;7.87;67.85
75166;BME280;63747;48.042;10.088;2023-04-24T05:56:32;94324.97;;;7.88;67.82
75166;BME280;63747;48.042;10.088;2023-04-24T05:59:34;94329.88;;;7.92;67.95
75166;BME280;63747;48.042;10.088;2023-04-24T06:02:34;94330.47;;;8.02;67.74
75166;BME280;63747;48.042;10.088;2023-04-24T06:05:35;94327.81;;;8.02;67.75
75166;BME280;63747;48.042;10.088;2023-04-24T06:08:36;94331.09;;;8.04;67.69
75166;BME280;63747;48.042;10.088;2023-04-24T06:11:36;94324.47;;;8.08;67.90
75166;BME280;63747;48.042;10.088;2023-04-24T06:14:37;94327.03;;;8.16;67.48
75166;BME280;63747;48.042;10.088;2023-04-24T06:17:37;94330.78;;;8.22;67.58
75166;BME280;63747;48.042;10.088;2023-04-24T06:20:38;94338.41;;;8.16;67.90
75166;BME280;63747;48.042;10.088;2023-04-24T06:23:39;94349.06;;;8.23;67.54
75166;BME280;63747;48.042;10.088;2023-04-24T06:26:39;94353.63;;;8.29;67.40
75166;BME280;63747;48.042;10.088;2023-04-24T06:29:40;94364.09;;;8.37;67.08
75166;BME280;63747;48.042;10.088;2023-04-24T06:32:40;94358.44;;;8.40;67.02
75166;BME280;63747;48.042;10.088;2023-04-24T06:35:41;94357.72;;;8.47;66.85
75166;BME280;63747;48.042;10.088;2023-04-24T06:38:41;94364.66;;;8.48;66.88
75166;BME280;63747;48.042;10.088;2023-04-24T06:41:42;94366.56;;;8.39;67.12
75166;BME280;63747;48.042;10.088;2023-04-24T06:44:42;94377.69;;;8.34;67.19
75166;BME280;63747;48.042;10.088;2023-04-24T06:47:43;94368.34;;;8.24;67.41
75166;BME280;63747;48.042;10.088;2023-04-24T06:50:43;94387.25;;;8.12;67.50
75166;BME280;63747;48.042;10.088;2023-04-24T06:53:44;94393.34;;;8.13;67.54
75166;BME280;63747;48.042;10.088;2023-04-24T06:56:45;94397.72;;;8.06;67.71
75166;BME280;63747;48.042;10.088;2023-04-24T06:59:47;94396.44;;;8.02;67.65
75166;BME280;63747;48.042;10.088;2023-04-24T07:02:48;94428.81;;;7.96;67.86
75166;BME280;63747;48.042;10.088;2023-04-24T07:05:48;94427.94;;;7.72;67.77
75166;BME280;63747;48.042;10.088;2023-04-24T07:08:49;94434.88;;;7.42;67.54
75166;BME280;63747;48.042;10.088;2023-04-24T07:11:50;94436.56;;;7.35;67.88
75166;BME280;63747;48.042;10.088;2023-04-24T07:14:51;94438.56;;;7.25;67.85
75166;BME280;63747;48.042;10.088;2023-04-24T07:17:51;94454.09;;;7.20;67.87
75166;BME280;63747;48.042;10.088;2023-04-24T07:20:52;94445.38;;;7.19;67.78
75166;BME280;63747;48.042;10.088;2023-04-24T07:23:52;94449.28;;;7.23;67.67
75166;BME280;63747;48.042;10.088;2023-04-24T07:26:53;94441.97;;;7.42;67.38
75166;BME280;63747;48.042;10.088;2023-04-24T07:29:54;94435.78;;;7.57;67.09
75166;BME280;63747;48.042;10.088;2023-04-24T07:32:54;94435.22;;;7.70;66.66
75166;BME280;63747;48.042;10.088;2023-04-24T07:35:55;94432.53;;;7.78;66.24
75166;BME280;63747;48.042;10.088;2023-04-24T07:38:56;94434.94;;;8.11;65.74
75166;BME280;63747;48.042;10.088;2023-04-24T07:41:57;94440.16;;;8.19;65.31
75166;BME280;63747;48.042;10.088;2023-04-24T07:44:59;94443.22;;;8.31;64.98
75166;BME280;63747;48.042;10.088;2023-04-24T07:47:59;94441.19;;;8.56;64.59
75166;BME280;63747;48.042;10.088;2023-04-24T07:51:00;94441.56;;;8.82;64.07
75166;BME280;63747;48.042;10.088;2023-04-24T07:54:00;94431.09;;;8.89;64.16
75166;BME280;63747;48.042;10.088;2023-04-24T07:57:01;94436.19;;;8.90;64.13
75166;BME280;63747;48.042;10.088;2023-04-24T08:00:02;94431.53;;;8.92;64.20
75166;BME280;63747;48.042;10.088;2023-04-24T08:03:03;94432.28;;;9.16;64.11
75166;BME280;63747;48.042;10.088;2023-04-24T08:06:04;94431.91;;;9.34;63.92
75166;BME280;63747;48.042;10.088;2023-04-24T08:09:04;94429.50;;;9.53;63.83
75166;BME280;63747;48.042;10.088;2023-04-24T08:12:05;94422.88;;;9.79;63.48
75166;BME280;63747;48.042;10.088;2023-04-24T08:15:06;94421.56;;;10.32;63.02
75166;BME280;63747;48.042;10.088;2023-04-24T08:18:06;94425.91;;;10.96;62.38
75166;BME280;63747;48.042;10.088;2023-04-24T08:21:07;94417.94;;;10.96;61.64
75166;BME280;63747;48.042;10.088;2023-04-24T08:24:08;94415.53;;;11.01;61.83
75166;BME280;63747;48.042;10.088;2023-04-24T08:27:08;94415.63;;;11.69;58.93
75166;BME280;63747;48.042;10.088;2023-04-24T08:30:09;94411.25;;;11.41;58.78
75166;BME280;63747;48.042;10.088;2023-04-24T08:33:09;94414.97;;;11.06;58.93
75166;BME280;63747;48.042;10.088;2023-04-24T08:36:10;94410.72;;;10.83;59.43
75166;BME280;63747;48.042;10.088;2023-04-24T08:39:10;94406.91;;;10.86;59.76
75166;BME280;63747;48.042;10.088;2023-04-24T08:42:11;94410.28;;;11.08;59.02
75166;BME280;63747;48.042;10.088;2023-04-24T08:45:13;94416.06;;;10.90;58.36
75166;BME280;63747;48.042;10.088;2023-04-24T08:48:13;94416.47;;;10.87;59.26
75166;BME280;63747;48.042;10.088;2023-04-24T08:51:14;94413.53;;;10.75;59.53
75166;BME280;63747;48.042;10.088;2023-04-24T08:54:15;94450.84;;;10.52;59.44
75166;BME280;63747;48.042;10.088;2023-04-24T08:57:15;94464.16;;;10.16;60.38
75166;BME280;63747;48.042;10.088;2023-04-24T09:00:16;94490.63;;;9.29;61.47
75166;BME280;63747;48.042;10.088;2023-04-24T09:03:17;94512.31;;;7.88;63.37
75166;BME280;63747;48.042;10.088;2023-04-24T09:06:18;94522.00;;;7.10;65.98
75166;BME280;63747;48.042;10.088;2023-04-24T09:09:19;94495.22;;;6.82;66.74
75166;BME280;63747;48.042;10.088;2023-04-24T09:12:20;94477.09;;;6.87;66.35
75166;BME280;63747;48.042;10.088;2023-04-24T09:15:21;94468.59;;;7.16;65.95
75166;BME280;63747;48.042;10.088;2023-04-24T09:18:21;94476.28;;;7.65;65.18
75166;BME280;63747;48.042;10.088;2023-04-24T09:21:22;94468.03;;;7.99;64.96
75166;BME280;63747;48.042;10.088;2023-04-24T09:24:23;94466.22;;;8.22;64.30
75166;BME280;63747;48.042;10.088;2023-04-24T09:27:23;94467.22;;;8.59;64.29
75166;BME280;63747;48.042;10.088;2023-04-24T09:30:24;94457.44;;;9.12;63.48
75166;BME280;63747;48.042;10.088;2023-04-24T09:33:25;94449.34;;;9.79;62.75
75166;BME280;63747;48.042;10.088;2023-04-24T09:36:26;94452.31;;;10.33;62.26
75166;BME280;63747;48.042;10.088;2023-04-24T09:39:27;94452.06;;;10.99;62.01
75166;BME280;63747;48.042;10.088;2023-04-24T09:42:29;94454.78;;;11.54;60.39
75166;BME280;63747;48.042;10.088;2023-04-24T09:45:35;94443.88;;;11.90;61.48
75166;BME280;63747;48.042;10.088;2023-04-24T09:48:37;94461.53;;;12.11;58.81
75166;BME280;63747;48.042;10.088;2023-04-24T09:51:38;94449.25;;;12.03;58.65
75166;BME280;63747;48.042;10.088;2023-04-24T09:54:39;94451.72;;;11.57;59.58
75166;BME280;63747;48.042;10.088;2023-04-24T09:57:53;94457.47;;;11.19;57.28
75166;BME280;63747;48.042;10.088;2023-04-24T10:00:55;94454.69;;;11.34;56.91
75166;BME280;63747;48.042;10.088;2023-04-24T10:03:56;94452.66;;;11.84;56.96
75166;BME280;63747;48.042;10.088;2023-04-24T10:06:57;94456.63;;;12.01;55.24
75166;BME280;63747;48.042;10.088;2023-04-24T10:09:58;94460.56;;;12.32;54.92
75166;BME280;63747;48.042;10.088;2023-04-24T10:12:59;94454.84;;;12.35;55.09
75166;BME280;63747;48.042;10.088;2023-04-24T10:15:59;94459.78;;;12.71;54.98
75166;BME280;63747;48.042;10.088;2023-04-24T10:19:00;94473.66;;;12.40;54.72
75166;BME280;63747;48.042;10.088;2023-04-24T10:22:03;94491.38;;;12.13;51.47
75166;BME280;63747;48.042;10.088;2023-04-24T10:25:04;94482.94;;;11.48;52.33
75166;BME280;63747;48.042;10.088;2023-04-24T10:28:05;94486.47;;;11.21;54.00
75166;BME280;63747;48.042;10.088;2023-04-24T10:31:06;94487.31;;;11.28;54.70
75166;BME280;63747;48.042;10.088;2023-04-24T10:34:07;94486.03;;;11.58;55.15
75166;BME280;63747;48.042;10.088;2023-04-24T10:37:08;94489.53;;;11.65;54.40
75166;BME280;63747;48.042;10.088;2023-04-24T10:40:09;94490.44;;;12.34;53.10
75166;BME280;63747;48.042;10.088;2023-04-24T10:43:10;94492.09;;;12.61;51.00
75166;BME280;63747;48.042;10.088;2023-04-24T10:46:16;94486.38;;;12.71;51.94
75166;BME280;63747;48.042;10.088;2023-04-24T10:49:27;94481.84;;;12.98;47.25
75166;BME280;63747;48.042;10.088;2023-04-24T10:52:43;94478.13;;;13.45;47.10
75166;BME280;63747;48.042;10.088;2023-04-24T10:55:48;94491.69;;;13.24;47.26
75166;BME280;63747;48.042;10.088;2023-04-24T10:58:52;94487.16;;;13.38;46.85
75166;BME280;63747;48.042;10.088;2023-04-24T11:01:53;94483.69;;;13.37;48.98
75166;BME280;63747;48.042;10.088;2023-04-24T11:04:57;94491.88;;;13.09;48.82
75166;BME280;63747;48.042;10.088;2023-04-24T11:08:13;94493.75;;;12.89;45.88
75166;BME280;63747;48.042;10.088;2023-04-24T11:11:17;94501.69;;;12.49;45.73
75166;BME280;63747;48.042;10.088;2023-04-24T11:14:19;94502.06;;;12.46;47.34
75166;BME280;63747;48.042;10.088;2023-04-24T11:17:35;94507.41;;;12.66;44.45
75166;BME280;63747;48.042;10.088;2023-04-24T11:20:38;94501.28;;;12.52;45.56
75166;BME280;63747;48.042;10.088;2023-04-24T11:23:41;94508.19;;;12.33;44.92
75166;BME280;63747;48.042;10.088;2023-04-24T11:26:42;94495.38;;;12.76;44.71
75166;BME280;63747;48.042;10.088;2023-04-24T11:32:50;94493.88;;;13.53;41.97
75166;BME280;63747;48.042;10.088;2023-04-24T11:35:51;94486.22;;;14.28;43.02
75166;BME280;63747;48.042;10.088;2023-04-24T11:38:52;94496.22;;;14.96;41.73
75166;BME280;63747;48.042;10.088;2023-04-24T11:41:52;94497.84;;;14.72;42.89
75166;BME280;63747;48.042;10.088;2023-04-24T11:44:53;94514.94;;;14.26;41.34
75166;BME280;63747;48.042;10.088;2023-04-24T11:47:55;94518.06;;;14.10;42.99
75166;BME280;63747;48.042;10.088;2023-04-24T11:50:56;94509.97;;;14.30;42.83
75166;BME280;63747;48.042;10.088;2023-04-24T11:53:56;94510.31;;;14.47;41.71
75166;BME280;63747;48.042;10.088;2023-04-24T11:56:57;94510.72;;;15.07;42.28
75166;BME280;63747;48.042;10.088;2023-04-24T11:59:58;94510.50;;;15.08;41.25
75166;BME280;63747;48.042;10.088;2023-04-24T12:03:06;94515.47;;;14.41;40.31
75166;BME280;63747;48.042;10.088;2023-04-24T12:06:07;94520.97;;;14.47;40.24
75166;BME280;63747;48.042;10.088;2023-04-24T12:09:08;94508.94;;;14.69;36.82
75166;BME280;63747;48.042;10.088;2023-04-24T12:12:09;94510.31;;;14.78;38.08
75166;BME280;63747;48.042;10.088;2023-04-24T12:15:09;94511.00;;;14.99;39.95
75166;BME280;63747;48.042;10.088;2023-04-24T12:18:12;94513.22;;;15.02;38.73
75166;BME280;63747;48.042;10.088;2023-04-24T12:21:20;94518.72;;;14.50;37.58
75166;BME280;63747;48.042;10.088;2023-04-24T12:24:21;94521.56;;;14.10;40.37
75166;BME280;63747;48.042;10.088;2023-04-24T12:27:22;94531.56;;;14.60;40.65
75166;BME280;63747;48.042;10.088;2023-04-24T12:30:26;94529.50;;;14.62;38.40
75166;BME280;63747;48.042;10.088;2023-04-24T12:33:31;94513.97;;;14.07;37.01
75166;BME280;63747;48.042;10.088;2023-04-24T12:36:32;94540.75;;;13.61;39.30
75166;BME280;63747;48.042;10.088;2023-04-24T12:39:35;94543.44;;;13.41;39.96
75166;BME280;63747;48.042;10.088;2023-04-24T12:42:36;94538.94;;;13.48;39.32
75166;BME280;63747;48.042;10.088;2023-04-24T12:45:41;94543.28;;;13.16;39.70
75166;BME280;63747;48.042;10.088;2023-04-24T12:48:42;94554.28;;;13.00;38.68
75166;BME280;63747;48.042;10.088;2023-04-24T12:51:42;94548.59;;;13.43;38.25
75166;BME280;63747;48.042;10.088;2023-04-24T12:54:43;94546.34;;;13.13;38.51
75166;BME280;63747;48.042;10.088;2023-04-24T12:57:44;94549.19;;;12.92;39.10
75166;BME280;63747;48.042;10.088;2023-04-24T13:00:44;94549.09;;;12.39;39.32
75166;BME280;63747;48.042;10.088;2023-04-24T13:03:45;94558.03;;;12.24;40.51
75166;BME280;63747;48.042;10.088;2023-04-24T13:06:46;94564.22;;;12.45;40.53
75166;BME280;63747;48.042;10.088;2023-04-24T13:09:47;94558.31;;;12.43;40.83
75166;BME280;63747;48.042;10.088;2023-04-24T13:12:48;94557.56;;;12.82;41.70
75166;BME280;63747;48.042;10.088;2023-04-24T13:15:48;94554.91;;;12.82;40.07
75166;BME280;63747;48.042;10.088;2023-04-24T13:18:49;94561.41;;;12.66;39.55
75166;BME280;63747;48.042;10.088;2023-04-24T13:21:50;94569.19;;;12.55;40.82
75166;BME280;63747;48.042;10.088;2023-04-24T13:24:50;94561.91;;;12.15;40.41
75166;BME280;63747;48.042;10.088;2023-04-24T13:27:51;94559.19;;;12.02;40.06
75166;BME280;63747;48.042;10.088;2023-04-24T13:30:51;94561.28;;;11.79;40.69
75166;BME280;63747;48.042;10.088;2023-04-24T13:33:52;94561.94;;;12.29;41.35
75166;BME280;63747;48.042;10.088;2023-04-24T13:36:53;94564.09;;;12.86;40.90
75166;BME280;63747;48.042;10.088;2023-04-24T13:39:54;94551.44;;;12.82;41.64
75166;BME280;63747;48.042;10.088;2023-04-24T13:42:54;94548.56;;;12.83;40.62
75166;BME280;63747;48.042;10.088;2023-04-24T13:45:55;94549.16;;;12.78;41.02
75166;BME280;63747;48.042;10.088;2023-04-24T13:48:56;94535.88;;;13.45;39.87
75166;BME280;63747;48.042;10.088;2023-04-24T13:51:57;94544.91;;;13.37;39.99
75166;BME280;63747;48.042;10.088;2023-04-24T13:54:57;94534.19;;;13.77;37.84
75166;BME280;63747;48.042;10.088;2023-04-24T13:57:58;94545.09;;;13.02;38.78
75166;BME280;63747;48.042;10.088;2023-04-24T14:00:58;94539.34;;;12.86;40.45
75166;BME280;63747;48.042;10.088;2023-04-24T14:03:59;94556.06;;;12.46;40.98
75166;BME280;63747;48.042;10.088;2023-04-24T14:06:59;94551.44;;;12.01;38.53
75166;BME280;63747;48.042;10.088;2023-04-24T14:10:00;94559.66;;;11.78;40.43
75166;BME280;63747;48.042;10.088;2023-04-24T14:13:00;94545.44;;;11.57;39.35
75166;BME280;63747;48.042;10.088;2023-04-24T14:16:01;94544.69;;;11.70;41.23
75166;BME280;63747;48.042;10.088;2023-04-24T14:19:01;94552.78;;;11.90;39.21
75166;BME280;63747;48.042;10.088;2023-04-24T14:22:02;94548.06;;;11.92;40.10
75166;BME280;63747;48.042;10.088;2023-04-24T14:25:03;94541.56;;;11.94;40.12
75166;BME280;63747;48.042;10.088;2023-04-24T14:28:05;94549.16;;;11.97;40.07
75166;BME280;63747;48.042;10.088;2023-04-24T14:31:05;94547.31;;;11.98;40.18
75166;BME280;63747;48.042;10.088;2023-04-24T14:34:06;94554.69;;;12.03;40.97
75166;BME280;63747;48.042;10.088;2023-04-24T14:37:07;94548.13;;;12.73;39.86
75166;BME280;63747;48.042;10.088;2023-04-24T14:40:07;94547.97;;;13.14;40.13
75166;BME280;63747;48.042;10.088;2023-04-24T14:43:09;94553.06;;;12.83;39.32
75166;BME280;63747;48.042;10.088;2023-04-24T14:46:09;94557.31;;;12.64;38.83
75166;BME280;63747;48.042;10.088;2023-04-24T14:49:10;94557.94;;;12.59;40.27
75166;BME280;63747;48.042;10.088;2023-04-24T14:52:12;94555.06;;;12.47;40.10
75166;BME280;63747;48.042;10.088;2023-04-24T14:55:12;94560.38;;;12.54;40.32
75166;BME280;63747;48.042;10.088;2023-04-24T14:58:13;94560.34;;;12.34;39.51
75166;BME280;63747;48.042;10.088;2023-04-24T15:01:13;94561.50;;;12.25;40.24
75166;BME280;63747;48.042;10.088;2023-04-24T15:04:14;94548.88;;;12.34;40.92
75166;BME280;63747;48.042;10.088;2023-04-24T15:07:15;94553.28;;;12.74;39.61
75166;BME280;63747;48.042;10.088;2023-04-24T15:10:15;94558.97;;;12.65;39.67
75166;BME280;63747;48.042;10.088;2023-04-24T15:13:17;94557.06;;;12.39;38.54
75166;BME280;63747;48.042;10.088;2023-04-24T15:16:18;94569.50;;;12.32;39.37
75166;BME280;63747;48.042;10.088;2023-04-24T15:19:18;94562.94;;;12.21;40.28
75166;BME280;63747;48.042;10.088;2023-04-24T15:22:19;94564.59;;;12.29;40.48
75166;BME280;63747;48.042;10.088;2023-04-24T15:25:19;94571.56;;;12.30;41.09
75166;BME280;63747;48.042;10.088;2023-04-24T15:28:20;94573.41;;;12.29;41.37
75166;BME280;63747;48.042;10.088;2023-04-24T15:31:21;94560.41;;;12.06;39.91
75166;BME280;63747;48.042;10.088;2023-04-24T15:34:22;94567.44;;;11.86;40.66
75166;BME280;63747;48.042;10.088;2023-04-24T15:37:23;94576.53;;;11.63;41.91
75166;BME280;63747;48.042;10.088;2023-04-24T15:40:23;94572.34;;;11.48;41.62
75166;BME280;63747;48.042;10.088;2023-04-24T15:43:24;94569.56;;;11.28;42.45
75166;BME280;63747;48.042;10.088;2023-04-24T15:46:24;94583.53;;;11.15;42.39
75166;BME280;63747;48.042;10.088;2023-04-24T15:49:25;94578.84;;;11.17;42.45
75166;BME280;63747;48.042;10.088;2023-04-24T15:52:26;94579.34;;;11.27;42.88
75166;BME280;63747;48.042;10.088;2023-04-24T15:55:27;94582.97;;;11.48;42.38